sensor_id;sensor_type;location;lat;lon;timestamp;pressure;altitude;pressure_sealevel;temperature;humidity
37878;BME280;23715;53.652;8.516;2022-09-12T00:02:24;101944.94;;;15.55;100.00
37878;BME280;23715;53.652;8.516;2022-09-12T00:07:25;101946.28;;;15.30;100.00
37878;BME280;23715;53.652;8.516;2022-09-12T00:12:25;101942.16;;;14.89;100.00
37878;BME280;23715;53.652;8.516;2022-09-12T00:17:25;101951.92;;;15.17;100.00
37878;BME280;23715;53.652;8.516;2022-09-12T00:22:26;101934.62;;;14.72;100.00
37878;BME280;23715;53.652;8.516;2022-09-12T00:27:27;101946.79;;;15.29;100.00
37878;BME280;23715;53.652;8.516;2022-09-12T00:32:27;101941.16;;;15.21;100.00
37878;BME280;23715;53.652;8.516;2022-09-12T00:37:27;101936.55;;;14.96;100.00
37878;BME280;23715;53.652;8.516;2022-09-12T00:42:28;101935.75;;;15.06;100.00
37878;BME280;23715;53.652;8.516;2022-09-12T00:47:30;101933.84;;;14.96;100.00
37878;BME280;23715;53.652;8.516;2022-09-12T00:52:39;101922.94;;;14.44;100.00
37878;BME280;23715;53.652;8.516;2022-09-12T00:57:51;101935.55;;;14.34;100.00
37878;BME280;23715;53.652;8.516;2022-09-12T01:02:49;101944.47;;;14.73;100.00
37878;BME280;23715;53.652;8.516;2022-09-12T01:07:51;101927.98;;;14.91;100.00
37878;BME280;23715;53.652;8.516;2022-09-12T01:12:51;101921.38;;;14.84;100.00
37878;BME280;23715;53.652;8.516;2022-09-12T01:39:17;101912.97;;;14.87;100.00
37878;BME280;23715;53.652;8.516;2022-09-12T01:54:49;101889.30;;;14.58;100.00
37878;BME280;23715;53.652;8.516;2022-09-12T01:59:53;101893.00;;;14.31;100.00
37878;BME280;23715;53.652;8.516;2022-09-12T02:05:08;101885.80;;;14.41;100.00
37878;BME280;23715;53.652;8.516;2022-09-12T02:10:17;101886.28;;;13.93;100.00
37878;BME280;23715;53.652;8.516;2022-09-12T02:15:20;101885.63;;;14.00;100.00
37878;BME280;23715;53.652;8.516;2022-09-12T02:20:29;101884.31;;;14.21;100.00
37878;BME280;23715;53.652;8.516;2022-09-12T02:25:32;101878.44;;;14.37;100.00
37878;BME280;23715;53.652;8.516;2022-09-12T02:30:38;101873.61;;;14.20;100.00
37878;BME280;23715;53.652;8.516;2022-09-12T02:35:45;101873.14;;;14.15;100.00
37878;BME280;23715;53.652;8.516;2022-09-12T02:40:44;101864.99;;;14.20;100.00
37878;BME280;23715;53.652;8.516;2022-09-12T02:45:44;101856.98;;;13.98;100.00
37878;BME280;23715;53.652;8.516;2022-09-12T02:50:45;101862.45;;;13.81;100.00
37878;BME280;23715;53.652;8.516;2022-09-12T02:55:46;101861.30;;;14.00;100.00
37878;BME280;23715;53.652;8.516;2022-09-12T03:12:00;101858.48;;;13.96;100.00
37878;BME280;23715;53.652;8.516;2022-09-12T03:17:03;101855.33;;;13.85;100.00
37878;BME280;23715;53.652;8.516;2022-09-12T03:27:22;101875.88;;;14.51;100.00
37878;BME280;23715;53.652;8.516;2022-09-12T03:37:42;101886.48;;;14.91;100.00
37878;BME280;23715;53.652;8.516;2022-09-12T03:42:43;101877.87;;;14.49;100.00
37878;BME280;23715;53.652;8.516;2022-09-12T03:47:43;101880.20;;;14.33;100.00
37878;BME280;23715;53.652;8.516;2022-09-12T03:52:43;101880.67;;;14.05;100.00
37878;BME280;23715;53.652;8.516;2022-09-12T03:57:44;101881.22;;;13.94;100.00
37878;BME280;23715;53.652;8.516;2022-09-12T04:02:44;101882.53;;;13.67;100.00
37878;BME280;23715;53.652;8.516;2022-09-12T04:07:44;101882.47;;;13.90;100.00
37878;BME280;23715;53.652;8.516;2022-09-12T04:12:45;101883.93;;;14.20;100.00
37878;BME280;23715;53.652;8.516;2022-09-12T04:17:45;101883.93;;;14.20;100.00
37878;BME280;23715;53.652;8.516;2022-09-12T04:22:46;101879.34;;;14.00;100.00
37878;BME280;23715;53.652;8.516;2022-09-12T04:27:46;101874.89;;;14.10;100.00
37878;BME280;23715;53.652;8.516;2022-09-12T04:32:46;101870.11;;;13.76;100.00
37878;BME280;23715;53.652;8.516;2022-09-12T04:37:46;101865.14;;;13.37;100.00
37878;BME280;23715;53.652;8.516;2022-09-12T04:42:46;101869.45;;;13.45;100.00
37878;BME280;23715;53.652;8.516;2022-09-12T04:47:46;101861.70;;;13.84;100.00
37878;BME280;23715;53.652;8.516;2022-09-12T04:52:51;101865.38;;;13.95;100.00
37878;BME280;23715;53.652;8.516;2022-09-12T04:57:51;101867.03;;;14.07;100.00
37878;BME280;23715;53.652;8.516;2022-09-12T05:02:52;101875.44;;;14.25;100.00
37878;BME280;23715;53.652;8.516;2022-09-12T05:07:52;101863.27;;;14.25;100.00
37878;BME280;23715;53.652;8.516;2022-09-12T05:12:53;101858.20;;;14.26;100.00
37878;BME280;23715;53.652;8.516;2022-09-12T05:17:53;101862.27;;;14.26;100.00
37878;BME280;23715;53.652;8.516;2022-09-12T05:22:53;101864.62;;;14.25;100.00
37878;BME280;23715;53.652;8.516;2022-09-12T05:27:54;101858.02;;;14.39;100.00
37878;BME280;23715;53.652;8.516;2022-09-12T05:32:55;101851.69;;;14.50;100.00
37878;BME280;23715;53.652;8.516;2022-09-12T05:37:55;101855.15;;;14.46;100.00
37878;BME280;23715;53.652;8.516;2022-09-12T05:42:55;101869.59;;;14.56;100.00
37878;BME280;23715;53.652;8.516;2022-09-12T05:47:55;101869.84;;;14.95;100.00
37878;BME280;23715;53.652;8.516;2022-09-12T05:52:59;101864.33;;;15.07;100.00
37878;BME280;23715;53.652;8.516;2022-09-12T05:57:59;101860.73;;;15.37;100.00
37878;BME280;23715;53.652;8.516;2022-09-12T06:02:59;101859.75;;;15.57;100.00
37878;BME280;23715;53.652;8.516;2022-09-12T06:07:59;101867.21;;;15.65;100.00
37878;BME280;23715;53.652;8.516;2022-09-12T06:13:00;101872.20;;;15.70;100.00
37878;BME280;23715;53.652;8.516;2022-09-12T06:18:02;101878.31;;;15.87;100.00
37878;BME280;23715;53.652;8.516;2022-09-12T06:23:02;101880.18;;;15.96;100.00
37878;BME280;23715;53.652;8.516;2022-09-12T06:28:03;101882.96;;;16.10;100.00
37878;BME280;23715;53.652;8.516;2022-09-12T06:33:04;101887.70;;;16.28;100.00
37878;BME280;23715;53.652;8.516;2022-09-12T06:38:04;101883.48;;;16.63;100.00
37878;BME280;23715;53.652;8.516;2022-09-12T06:43:05;101865.52;;;16.85;100.00
37878;BME280;23715;53.652;8.516;2022-09-12T06:48:05;101854.42;;;16.92;100.00
37878;BME280;23715;53.652;8.516;2022-09-12T06:53:05;101859.66;;;17.04;100.00
37878;BME280;23715;53.652;8.516;2022-09-12T06:58:05;101863.08;;;17.20;100.00
37878;BME280;23715;53.652;8.516;2022-09-12T07:03:07;101858.41;;;17.40;100.00
37878;BME280;23715;53.652;8.516;2022-09-12T07:08:07;101854.61;;;17.64;100.00
37878;BME280;23715;53.652;8.516;2022-09-12T07:13:08;101853.20;;;17.92;100.00
37878;BME280;23715;53.652;8.516;2022-09-12T07:18:09;101850.11;;;18.27;100.00
37878;BME280;23715;53.652;8.516;2022-09-12T07:23:10;101856.95;;;18.31;100.00
37878;BME280;23715;53.652;8.516;2022-09-12T07:28:10;101848.88;;;18.47;100.00
37878;BME280;23715;53.652;8.516;2022-09-12T07:33:10;101845.80;;;18.42;100.00
37878;BME280;23715;53.652;8.516;2022-09-12T07:38:10;101847.34;;;18.71;100.00
37878;BME280;23715;53.652;8.516;2022-09-12T07:43:11;101837.99;;;19.00;100.00
37878;BME280;23715;53.652;8.516;2022-09-12T07:48:11;101831.97;;;18.84;100.00
37878;BME280;23715;53.652;8.516;2022-09-12T07:53:12;101838.00;;;19.04;100.00
37878;BME280;23715;53.652;8.516;2022-09-12T07:58:12;101837.40;;;19.18;100.00
37878;BME280;23715;53.652;8.516;2022-09-12T08:03:13;101826.14;;;19.21;100.00
37878;BME280;23715;53.652;8.516;2022-09-12T08:08:14;101824.73;;;19.05;100.00
37878;BME280;23715;53.652;8.516;2022-09-12T08:13:14;101840.26;;;19.08;100.00
37878;BME280;23715;53.652;8.516;2022-09-12T08:18:14;101848.92;;;19.08;100.00
37878;BME280;23715;53.652;8.516;2022-09-12T08:23:14;101834.02;;;19.33;100.00
37878;BME280;23715;53.652;8.516;2022-09-12T08:28:16;101826.74;;;19.54;100.00
37878;BME280;23715;53.652;8.516;2022-09-12T08:33:16;101823.33;;;19.51;100.00
37878;BME280;23715;53.652;8.516;2022-09-12T08:38:17;101825.73;;;19.55;100.00
37878;BME280;23715;53.652;8.516;2022-09-12T08:48:38;101824.96;;;19.91;100.00
37878;BME280;23715;53.652;8.516;2022-09-12T08:53:39;101815.40;;;19.99;100.00
37878;BME280;23715;53.652;8.516;2022-09-12T08:58:42;101816.60;;;20.21;100.00
37878;BME280;23715;53.652;8.516;2022-09-12T09:04:04;101809.94;;;20.20;100.00
37878;BME280;23715;53.652;8.516;2022-09-12T09:09:09;101799.66;;;20.55;100.00
37878;BME280;23715;53.652;8.516;2022-09-12T09:14:29;101794.88;;;20.53;100.00
37878;BME280;23715;53.652;8.516;2022-09-12T09:20:00;101791.61;;;20.57;100.00
37878;BME280;23715;53.652;8.516;2022-09-12T09:25:04;101791.97;;;20.58;100.00
37878;BME280;23715;53.652;8.516;2022-09-12T09:30:00;101793.52;;;20.53;100.00
37878;BME280;23715;53.652;8.516;2022-09-12T09:35:14;101780.99;;;20.75;100.00
37878;BME280;23715;53.652;8.516;2022-09-12T09:45:24;101777.92;;;20.78;100.00
37878;BME280;23715;53.652;8.516;2022-09-12T09:50:27;101777.22;;;20.80;100.00
37878;BME280;23715;53.652;8.516;2022-09-12T09:55:33;101762.60;;;21.04;100.00
37878;BME280;23715;53.652;8.516;2022-09-12T10:00:35;101761.58;;;21.01;100.00
37878;BME280;23715;53.652;8.516;2022-09-12T10:05:47;101761.78;;;20.95;100.00
37878;BME280;23715;53.652;8.516;2022-09-12T10:10:53;101754.38;;;21.08;100.00
37878;BME280;23715;53.652;8.516;2022-09-12T10:16:03;101763.36;;;20.85;100.00
37878;BME280;23715;53.652;8.516;2022-09-12T10:26:23;101746.69;;;21.03;100.00
37878;BME280;23715;53.652;8.516;2022-09-12T10:31:28;101742.06;;;21.35;100.00
37878;BME280;23715;53.652;8.516;2022-09-12T10:36:38;101728.16;;;21.45;100.00
37878;BME280;23715;53.652;8.516;2022-09-12T10:41:40;101714.48;;;21.45;100.00
37878;BME280;23715;53.652;8.516;2022-09-12T10:46:40;101724.35;;;21.73;100.00
37878;BME280;23715;53.652;8.516;2022-09-12T10:51:40;101715.85;;;21.41;100.00
37878;BME280;23715;53.652;8.516;2022-09-12T10:57:07;101714.06;;;21.75;100.00
37878;BME280;23715;53.652;8.516;2022-09-12T11:02:28;101713.35;;;21.96;100.00
37878;BME280;23715;53.652;8.516;2022-09-12T11:07:46;101703.48;;;22.29;100.00
37878;BME280;23715;53.652;8.516;2022-09-12T11:13:01;101685.73;;;22.51;100.00
37878;BME280;23715;53.652;8.516;2022-09-12T11:28:31;101649.18;;;22.69;100.00
37878;BME280;23715;53.652;8.516;2022-09-12T11:33:42;101647.16;;;23.36;100.00
37878;BME280;23715;53.652;8.516;2022-09-12T11:54:23;101600.38;;;23.62;100.00
37878;BME280;23715;53.652;8.516;2022-09-12T11:59:31;101597.25;;;23.54;100.00
37878;BME280;23715;53.652;8.516;2022-09-12T12:04:38;101599.05;;;23.51;100.00
37878;BME280;23715;53.652;8.516;2022-09-12T12:09:51;101589.31;;;23.94;100.00
37878;BME280;23715;53.652;8.516;2022-09-12T12:14:49;101594.86;;;24.01;100.00
37878;BME280;23715;53.652;8.516;2022-09-12T12:20:00;101581.20;;;23.96;100.00
37878;BME280;23715;53.652;8.516;2022-09-12T12:25:07;101577.09;;;23.79;100.00
37878;BME280;23715;53.652;8.516;2022-09-12T12:35:40;101572.80;;;23.59;100.00
37878;BME280;23715;53.652;8.516;2022-09-12T12:40:41;101558.31;;;23.72;100.00
37878;BME280;23715;53.652;8.516;2022-09-12T12:45:46;101540.82;;;23.90;100.00
37878;BME280;23715;53.652;8.516;2022-09-12T12:50:48;101529.02;;;23.96;100.00
37878;BME280;23715;53.652;8.516;2022-09-12T12:55:50;101522.95;;;24.14;100.00
37878;BME280;23715;53.652;8.516;2022-09-12T13:11:40;101508.58;;;24.50;100.00
37878;BME280;23715;53.652;8.516;2022-09-12T13:16:39;101492.48;;;24.78;100.00
37878;BME280;23715;53.652;8.516;2022-09-12T13:21:59;101492.48;;;24.78;100.00
37878;BME280;23715;53.652;8.516;2022-09-12T13:26:55;101477.66;;;24.92;100.00
37878;BME280;23715;53.652;8.516;2022-09-12T13:32:00;101479.86;;;24.79;100.00
37878;BME280;23715;53.652;8.516;2022-09-12T13:42:25;101472.16;;;24.85;100.00
37878;BME280;23715;53.652;8.516;2022-09-12T13:47:43;101463.36;;;24.92;100.00
37878;BME280;23715;53.652;8.516;2022-09-12T13:52:39;101461.95;;;25.19;100.00
37878;BME280;23715;53.652;8.516;2022-09-12T13:57:40;101454.67;;;25.02;100.00
37878;BME280;23715;53.652;8.516;2022-09-12T14:02:41;101444.44;;;24.67;100.00
37878;BME280;23715;53.652;8.516;2022-09-12T14:07:56;101436.79;;;25.09;100.00
37878;BME280;23715;53.652;8.516;2022-09-12T14:12:58;101433.59;;;25.19;100.00
37878;BME280;23715;53.652;8.516;2022-09-12T14:18:01;101428.98;;;24.99;100.00
37878;BME280;23715;53.652;8.516;2022-09-12T14:23:14;101421.86;;;25.14;100.00
37878;BME280;23715;53.652;8.516;2022-09-12T14:28:11;101424.91;;;25.35;100.00
37878;BME280;23715;53.652;8.516;2022-09-12T14:38:19;101412.53;;;25.22;100.00
37878;BME280;23715;53.652;8.516;2022-09-12T14:43:24;101393.83;;;24.94;100.00
37878;BME280;23715;53.652;8.516;2022-09-12T14:48:28;101393.83;;;25.01;100.00
37878;BME280;23715;53.652;8.516;2022-09-12T14:53:35;101393.32;;;24.95;100.00
37878;BME280;23715;53.652;8.516;2022-09-12T14:58:37;101385.48;;;24.92;100.00
37878;BME280;23715;53.652;8.516;2022-09-12T15:08:46;101375.89;;;24.65;100.00
37878;BME280;23715;53.652;8.516;2022-09-12T15:13:47;101371.86;;;24.74;100.00
37878;BME280;23715;53.652;8.516;2022-09-12T15:18:47;101367.60;;;24.92;100.00
37878;BME280;23715;53.652;8.516;2022-09-12T15:23:51;101359.31;;;25.12;100.00
37878;BME280;23715;53.652;8.516;2022-09-12T15:28:52;101361.83;;;25.13;100.00
37878;BME280;23715;53.652;8.516;2022-09-12T15:33:54;101345.08;;;25.35;100.00
37878;BME280;23715;53.652;8.516;2022-09-12T15:38:55;101339.39;;;25.17;100.00
37878;BME280;23715;53.652;8.516;2022-09-12T15:43:56;101336.12;;;25.24;100.00
37878;BME280;23715;53.652;8.516;2022-09-12T15:48:57;101324.00;;;24.89;100.00
37878;BME280;23715;53.652;8.516;2022-09-12T15:53:58;101319.34;;;24.96;100.00
37878;BME280;23715;53.652;8.516;2022-09-12T15:58:59;101322.25;;;25.08;100.00
37878;BME280;23715;53.652;8.516;2022-09-12T16:04:01;101322.71;;;24.98;100.00
37878;BME280;23715;53.652;8.516;2022-09-12T16:09:02;101317.75;;;24.98;100.00
37878;BME280;23715;53.652;8.516;2022-09-12T16:14:04;101310.54;;;25.03;100.00
37878;BME280;23715;53.652;8.516;2022-09-12T16:19:04;101297.45;;;24.92;100.00
37878;BME280;23715;53.652;8.516;2022-09-12T16:24:05;101295.81;;;25.07;100.00
37878;BME280;23715;53.652;8.516;2022-09-12T16:29:07;101293.98;;;24.87;100.00
37878;BME280;23715;53.652;8.516;2022-09-12T16:34:10;101291.89;;;24.69;100.00
37878;BME280;23715;53.652;8.516;2022-09-12T16:39:10;101285.26;;;24.61;100.00
37878;BME280;23715;53.652;8.516;2022-09-12T16:44:11;101295.40;;;24.41;100.00
37878;BME280;23715;53.652;8.516;2022-09-12T16:49:11;101280.52;;;24.32;100.00
37878;BME280;23715;53.652;8.516;2022-09-12T16:54:16;101269.09;;;24.55;100.00
37878;BME280;23715;53.652;8.516;2022-09-12T16:59:15;101255.55;;;24.54;100.00
37878;BME280;23715;53.652;8.516;2022-09-12T17:04:16;101253.42;;;24.43;100.00
37878;BME280;23715;53.652;8.516;2022-09-12T17:09:17;101255.13;;;24.57;100.00
37878;BME280;23715;53.652;8.516;2022-09-12T17:14:18;101253.73;;;24.64;100.00
37878;BME280;23715;53.652;8.516;2022-09-12T17:19:26;101241.41;;;24.17;100.00
37878;BME280;23715;53.652;8.516;2022-09-12T17:24:24;101240.03;;;24.30;100.00
37878;BME280;23715;53.652;8.516;2022-09-12T17:29:25;101243.41;;;23.99;100.00
37878;BME280;23715;53.652;8.516;2022-09-12T17:34:25;101227.69;;;23.90;100.00
37878;BME280;23715;53.652;8.516;2022-09-12T17:39:26;101221.40;;;23.72;100.00
37878;BME280;23715;53.652;8.516;2022-09-12T17:44:26;101217.84;;;23.92;100.00
37878;BME280;23715;53.652;8.516;2022-09-12T17:49:28;101220.90;;;23.86;100.00
37878;BME280;23715;53.652;8.516;2022-09-12T17:54:30;101215.66;;;23.54;100.00
37878;BME280;23715;53.652;8.516;2022-09-12T17:59:29;101202.38;;;23.71;100.00
37878;BME280;23715;53.652;8.516;2022-09-12T18:04:30;101195.08;;;23.47;100.00
37878;BME280;23715;53.652;8.516;2022-09-12T18:09:30;101193.18;;;23.41;100.00
37878;BME280;23715;53.652;8.516;2022-09-12T18:14:31;101191.70;;;23.52;100.00
37878;BME280;23715;53.652;8.516;2022-09-12T18:19:32;101194.62;;;23.37;100.00
37878;BME280;23715;53.652;8.516;2022-09-12T18:24:32;101182.88;;;23.19;100.00
37878;BME280;23715;53.652;8.516;2022-09-12T18:29:32;101188.83;;;23.43;100.00
37878;BME280;23715;53.652;8.516;2022-09-12T18:34:32;101182.75;;;23.03;100.00
37878;BME280;23715;53.652;8.516;2022-09-12T18:39:33;101172.50;;;22.84;100.00
37878;BME280;23715;53.652;8.516;2022-09-12T18:44:33;101171.08;;;22.70;100.00
37878;BME280;23715;53.652;8.516;2022-09-12T18:49:33;101177.62;;;22.52;100.00
37878;BME280;23715;53.652;8.516;2022-09-12T18:54:33;101173.07;;;22.66;100.00
37878;BME280;23715;53.652;8.516;2022-09-12T18:59:35;101168.36;;;22.53;100.00
37878;BME280;23715;53.652;8.516;2022-09-12T19:04:35;101169.40;;;22.52;100.00
37878;BME280;23715;53.652;8.516;2022-09-12T19:09:36;101171.27;;;22.62;100.00
37878;BME280;23715;53.652;8.516;2022-09-12T19:14:36;101172.35;;;22.74;100.00
37878;BME280;23715;53.652;8.516;2022-09-12T19:19:37;101170.42;;;22.61;100.00
37878;BME280;23715;53.652;8.516;2022-09-12T19:24:37;101166.08;;;22.63;100.00
37878;BME280;23715;53.652;8.516;2022-09-12T19:29:37;101165.19;;;22.73;100.00
37878;BME280;23715;53.652;8.516;2022-09-12T19:34:41;101162.50;;;22.63;100.00
37878;BME280;23715;53.652;8.516;2022-09-12T19:39:39;101149.44;;;22.65;100.00
37878;BME280;23715;53.652;8.516;2022-09-12T19:44:41;101132.98;;;22.65;100.00
37878;BME280;23715;53.652;8.516;2022-09-12T19:49:41;101125.20;;;22.68;100.00
37878;BME280;23715;53.652;8.516;2022-09-12T19:54:41;101110.46;;;22.69;100.00
37878;BME280;23715;53.652;8.516;2022-09-12T19:59:43;101106.07;;;22.57;100.00
37878;BME280;23715;53.652;8.516;2022-09-12T20:04:44;101111.83;;;22.69;100.00
37878;BME280;23715;53.652;8.516;2022-09-12T20:09:45;101110.02;;;22.66;100.00
37878;BME280;23715;53.652;8.516;2022-09-12T20:14:46;101113.55;;;22.84;100.00
37878;BME280;23715;53.652;8.516;2022-09-12T20:19:47;101098.47;;;22.77;100.00
37878;BME280;23715;53.652;8.516;2022-09-12T20:24:47;101091.81;;;22.75;100.00
37878;BME280;23715;53.652;8.516;2022-09-12T20:29:47;101079.47;;;22.75;100.00
37878;BME280;23715;53.652;8.516;2022-09-12T20:34:48;101074.59;;;22.71;100.00
37878;BME280;23715;53.652;8.516;2022-09-12T20:39:48;101068.06;;;22.65;100.00
37878;BME280;23715;53.652;8.516;2022-09-12T20:44:48;101065.86;;;22.71;100.00
37878;BME280;23715;53.652;8.516;2022-09-12T20:49:50;101062.27;;;22.40;100.00
37878;BME280;23715;53.652;8.516;2022-09-12T20:54:51;101052.08;;;22.45;100.00
37878;BME280;23715;53.652;8.516;2022-09-12T20:59:51;101048.47;;;22.44;100.00
37878;BME280;23715;53.652;8.516;2022-09-12T21:04:52;101045.03;;;22.53;100.00
37878;BME280;23715;53.652;8.516;2022-09-12T21:09:54;101041.38;;;22.32;100.00
37878;BME280;23715;53.652;8.516;2022-09-12T21:14:55;101026.88;;;22.52;100.00
37878;BME280;23715;53.652;8.516;2022-09-12T21:19:56;101033.63;;;22.49;100.00
37878;BME280;23715;53.652;8.516;2022-09-12T21:24:57;101033.53;;;22.53;100.00
37878;BME280;23715;53.652;8.516;2022-09-12T21:29:57;101029.59;;;22.38;100.00
37878;BME280;23715;53.652;8.516;2022-09-12T21:34:57;101023.27;;;22.31;100.00
37878;BME280;23715;53.652;8.516;2022-09-12T21:39:58;101022.20;;;22.32;100.00
37878;BME280;23715;53.652;8.516;2022-09-12T21:44:58;101004.81;;;22.29;100.00
37878;BME280;23715;53.652;8.516;2022-09-12T21:49:58;101016.69;;;22.08;100.00
37878;BME280;23715;53.652;8.516;2022-09-12T21:54:59;101017.59;;;21.98;100.00
37878;BME280;23715;53.652;8.516;2022-09-12T22:00:03;101005.31;;;21.87;100.00
37878;BME280;23715;53.652;8.516;2022-09-12T22:05:05;101022.03;;;21.64;100.00
37878;BME280;23715;53.652;8.516;2022-09-12T22:10:06;101019.83;;;21.63;100.00
37878;BME280;23715;53.652;8.516;2022-09-12T22:15:07;101019.42;;;21.38;100.00
37878;BME280;23715;53.652;8.516;2022-09-12T22:20:08;101013.50;;;21.35;100.00
37878;BME280;23715;53.652;8.516;2022-09-12T22:25:08;101005.61;;;21.47;100.00
37878;BME280;23715;53.652;8.516;2022-09-12T22:30:10;101001.67;;;21.56;100.00
37878;BME280;23715;53.652;8.516;2022-09-12T22:35:11;100993.19;;;21.44;100.00
37878;BME280;23715;53.652;8.516;2022-09-12T22:40:12;100991.17;;;21.59;100.00
37878;BME280;23715;53.652;8.516;2022-09-12T22:45:13;100996.67;;;21.49;100.00
37878;BME280;23715;53.652;8.516;2022-09-12T22:50:14;101005.95;;;21.48;100.00
37878;BME280;23715;53.652;8.516;2022-09-12T22:55:15;101005.02;;;21.40;100.00
37878;BME280;23715;53.652;8.516;2022-09-12T23:00:15;101018.22;;;21.19;100.00
37878;BME280;23715;53.652;8.516;2022-09-12T23:05:17;101019.05;;;21.20;100.00
37878;BME280;23715;53.652;8.516;2022-09-12T23:10:17;101019.52;;;21.23;100.00
37878;BME280;23715;53.652;8.516;2022-09-12T23:15:17;101018.98;;;21.24;100.00
37878;BME280;23715;53.652;8.516;2022-09-12T23:20:17;101021.34;;;21.16;100.00
37878;BME280;23715;53.652;8.516;2022-09-12T23:25:18;101021.22;;;21.03;100.00
37878;BME280;23715;53.652;8.516;2022-09-12T23:30:20;101005.84;;;21.23;100.00
37878;BME280;23715;53.652;8.516;2022-09-12T23:35:20;100991.38;;;21.19;100.00
37878;BME280;23715;53.652;8.516;2022-09-12T23:40:20;100981.04;;;21.14;100.00
37878;BME280;23715;53.652;8.516;2022-09-12T23:45:21;100984.76;;;21.17;100.00
37878;BME280;23715;53.652;8.516;2022-09-12T23:50:21;100952.11;;;20.98;100.00
37878;BME280;23715;53.652;8.516;2022-09-12T23:55:21;100934.99;;;20.90;100.00
